createdAt,value
2022-11-28T00:00:36.861Z,30.40
2022-11-28T00:03:39.784Z,31.00
2022-11-28T00:06:16.888Z,27.90
2022-11-28T00:09:06.732Z,26.50
2022-11-28T00:11:41.928Z,25.80
2022-11-28T00:14:29.726Z,27.30
2022-11-28T00:17:04.918Z,27.60
2022-11-28T00:19:53.146Z,37.60
2022-11-28T00:22:35.728Z,36.10
2022-11-28T00:25:30.702Z,35.60
2022-11-28T00:28:18.721Z,31.70
2022-11-28T00:30:53.871Z,62.10
2022-11-28T00:33:41.726Z,38.70
2022-11-28T00:36:23.720Z,38.60
2022-11-28T00:39:20.709Z,63.80
2022-11-28T00:42:09.054Z,34.40
2022-11-28T00:44:51.139Z,34.20
2022-11-28T00:47:45.713Z,36.50
2022-11-28T00:50:33.702Z,42.30
2022-11-28T00:53:08.048Z,34.60
2022-11-28T00:55:55.710Z,38.90
2022-11-28T00:58:37.376Z,36.50
2022-11-28T01:01:23.778Z,33.00
2022-11-28T01:04:14.724Z,40.30
2022-11-28T01:06:57.712Z,32.30
2022-11-28T01:09:45.702Z,36.90
2022-11-28T01:12:26.712Z,32.20
2022-11-28T01:15:15.774Z,27.10
2022-11-28T01:17:57.898Z,32.50
2022-11-28T01:20:39.857Z,40.20
2022-11-28T01:23:20.687Z,37.70
2022-11-28T01:26:09.716Z,33.50
2022-11-28T01:28:50.708Z,30.80
2022-11-28T01:31:35.020Z,34.90
2022-11-28T01:34:16.707Z,33.80
2022-11-28T01:36:57.888Z,30.80
2022-11-28T01:39:38.720Z,32.90
2022-11-28T01:42:32.905Z,31.20
2022-11-28T01:45:35.925Z,30.50
2022-11-28T01:48:35.695Z,34.30
2022-11-28T01:51:14.828Z,32.80
2022-11-28T01:54:03.911Z,42.50
2022-11-28T01:56:47.640Z,40.60
2022-11-28T01:59:40.706Z,33.70
2022-11-28T02:02:19.898Z,34.10
2022-11-28T02:05:08.911Z,30.80
2022-11-28T02:07:44.920Z,34.10
2022-11-28T02:10:35.694Z,34.10
2022-11-28T02:13:31.841Z,31.10
2022-11-28T02:16:55.870Z,34.80
2022-11-28T02:20:28.718Z,27.00
2022-11-28T02:23:34.689Z,25.60
2022-11-28T02:26:56.695Z,24.20
2022-11-28T02:29:43.814Z,36.00
2022-11-28T02:32:33.687Z,32.10
2022-11-28T02:35:17.824Z,29.50
2022-11-28T02:38:13.705Z,26.90
2022-11-28T02:41:50.833Z,26.50
2022-11-28T02:44:49.696Z,25.10
2022-11-28T02:47:57.827Z,22.00
2022-11-28T02:50:58.699Z,17.60
2022-11-28T02:53:41.012Z,24.90
2022-11-28T02:56:22.672Z,24.00
2022-11-28T02:59:10.685Z,28.50
2022-11-28T03:01:45.179Z,33.20
2022-11-28T03:04:41.904Z,34.20
2022-11-28T03:07:42.422Z,23.00
2022-11-28T03:10:52.704Z,23.90
2022-11-28T03:13:40.631Z,23.30
2022-11-28T03:16:44.749Z,26.30
2022-11-28T03:19:46.685Z,24.10
2022-11-28T03:22:43.711Z,19.90
2022-11-28T03:25:33.832Z,18.80
2022-11-28T03:28:27.880Z,24.10
2022-11-28T03:31:17.700Z,19.60
2022-11-28T03:34:06.671Z,17.30
2022-11-28T03:36:58.687Z,27.00
2022-11-28T03:39:57.687Z,24.70
2022-11-28T03:42:49.688Z,19.10
2022-11-28T03:45:30.856Z,21.70
2022-11-28T03:48:34.670Z,22.00
2022-11-28T03:51:13.825Z,23.10
2022-11-28T03:54:15.664Z,23.40
2022-11-28T03:57:15.846Z,18.70
2022-11-28T03:59:58.875Z,19.00
2022-11-28T04:02:47.048Z,20.00
2022-11-28T04:05:59.881Z,19.60
2022-11-28T04:08:55.675Z,14.40
2022-11-28T04:11:44.672Z,23.70
2022-11-28T04:14:29.698Z,23.50
2022-11-28T04:17:39.720Z,21.70
2022-11-28T04:20:26.067Z,20.10
2022-11-28T04:23:12.686Z,17.90
2022-11-28T04:26:07.659Z,18.80
2022-11-28T04:28:43.084Z,18.80
2022-11-28T04:31:31.743Z,18.30
2022-11-28T04:34:09.336Z,16.40
2022-11-28T04:36:58.867Z,18.10
2022-11-28T04:39:35.456Z,17.00
2022-11-28T04:42:52.856Z,21.00
2022-11-28T04:45:41.729Z,21.40
2022-11-28T04:48:34.091Z,19.90
2022-11-28T04:51:18.040Z,20.30
2022-11-28T04:54:29.672Z,15.40
2022-11-28T04:57:24.644Z,17.10
2022-11-28T05:00:15.671Z,15.20
2022-11-28T05:02:52.184Z,17.50
2022-11-28T05:05:40.670Z,16.20
2022-11-28T05:08:15.955Z,16.00
2022-11-28T05:11:03.665Z,15.00
2022-11-28T05:13:38.109Z,16.30
2022-11-28T05:16:26.659Z,14.40
2022-11-28T05:19:01.339Z,11.00
2022-11-28T05:21:50.669Z,20.60
2022-11-28T05:24:31.923Z,20.20
2022-11-28T05:27:20.670Z,28.40
2022-11-28T05:30:15.673Z,22.00
2022-11-28T05:33:07.667Z,21.10
2022-11-28T05:35:45.802Z,16.50
2022-11-28T05:38:33.644Z,21.70
2022-11-28T05:41:08.812Z,15.10
2022-11-28T05:43:57.672Z,17.20
2022-11-28T05:46:33.795Z,15.50
2022-11-28T05:49:21.730Z,18.90
2022-11-28T05:51:56.787Z,14.90
2022-11-28T05:54:44.674Z,13.60
2022-11-28T05:57:27.682Z,13.00
2022-11-28T06:00:24.656Z,17.90
2022-11-28T06:03:12.641Z,15.60
2022-11-28T06:05:53.801Z,14.60
2022-11-28T06:08:34.650Z,14.30
2022-11-28T06:11:16.847Z,15.30
2022-11-28T06:13:57.649Z,15.10
2022-11-28T06:16:45.728Z,15.50
2022-11-28T06:19:26.665Z,14.50
2022-11-28T06:22:07.784Z,13.50
2022-11-28T06:24:48.633Z,13.40
2022-11-28T06:27:36.651Z,13.80
2022-11-28T06:30:11.270Z,19.00
2022-11-28T06:32:59.657Z,15.30
2022-11-28T06:35:34.092Z,10.30
2022-11-28T06:38:21.804Z,19.80
2022-11-28T06:40:59.285Z,14.30
2022-11-28T06:43:47.627Z,15.90
2022-11-28T06:46:22.620Z,12.20
2022-11-28T06:49:10.643Z,12.00
2022-11-28T06:51:46.147Z,13.90
2022-11-28T06:54:33.837Z,10.00
2022-11-28T06:57:15.627Z,15.20
2022-11-28T06:59:56.795Z,16.00
2022-11-28T07:02:37.676Z,14.60
2022-11-28T07:05:19.589Z,12.40
2022-11-28T07:08:01.670Z,16.30
2022-11-28T07:10:42.814Z,12.80
2022-11-28T07:13:23.644Z,11.10
2022-11-28T07:16:04.884Z,12.70
2022-11-28T07:18:45.638Z,11.60
2022-11-28T07:21:34.626Z,13.70
2022-11-28T07:24:09.157Z,16.00
2022-11-28T07:26:56.630Z,11.90
2022-11-28T07:29:36.248Z,12.80
2022-11-28T07:32:24.636Z,12.80
2022-11-28T07:34:59.081Z,11.30
2022-11-28T07:37:46.638Z,12.10
2022-11-28T07:40:24.093Z,10.20
2022-11-28T07:43:12.808Z,12.60
2022-11-28T07:46:01.104Z,11.40
2022-11-28T07:48:43.955Z,11.40
2022-11-28T07:51:28.631Z,13.50
2022-11-28T07:54:17.629Z,12.30
2022-11-28T07:57:11.755Z,13.00
2022-11-28T08:00:00.633Z,9.60
2022-11-28T08:02:41.648Z,11.20
2022-11-28T08:05:22.781Z,11.30
2022-11-28T08:08:03.676Z,11.40
2022-11-28T08:10:44.785Z,11.90
2022-11-28T08:13:26.632Z,13.00
2022-11-28T08:16:15.821Z,13.60
2022-11-28T08:18:57.658Z,13.30
2022-11-28T08:21:47.667Z,12.40
2022-11-28T08:24:29.633Z,15.00
2022-11-28T08:27:10.782Z,10.60
2022-11-28T08:29:53.491Z,11.60
2022-11-28T08:32:36.783Z,11.50
2022-11-28T08:35:17.638Z,10.90
2022-11-28T08:38:01.758Z,13.20
2022-11-28T08:40:50.659Z,11.80
2022-11-28T08:43:25.756Z,13.10
2022-11-28T08:46:17.664Z,12.30
2022-11-28T08:48:59.713Z,11.10
2022-11-28T08:51:54.643Z,11.90
2022-11-28T08:54:50.666Z,11.20
2022-11-28T08:57:38.637Z,13.10
2022-11-28T09:00:23.622Z,11.70
2022-11-28T09:03:18.638Z,12.70
2022-11-28T09:06:16.607Z,14.40
2022-11-28T09:09:04.669Z,17.40
2022-11-28T09:11:45.949Z,13.50
2022-11-28T09:14:27.740Z,17.00
2022-11-28T09:17:08.823Z,16.40
2022-11-28T09:19:50.710Z,13.80
2022-11-28T09:22:31.785Z,11.30
2022-11-28T09:25:13.611Z,12.80
2022-11-28T09:27:54.858Z,15.10
2022-11-28T09:30:36.718Z,14.80
2022-11-28T09:33:24.625Z,14.60
2022-11-28T09:35:59.216Z,12.70
2022-11-28T09:38:46.637Z,12.60
2022-11-28T09:41:44.103Z,13.10
2022-11-28T09:44:34.699Z,12.70
2022-11-28T09:47:36.961Z,9.20
2022-11-28T09:50:27.615Z,16.40
2022-11-28T09:53:25.126Z,15.20
2022-11-28T09:56:16.608Z,11.90
2022-11-28T09:59:00.916Z,13.50
2022-11-28T10:02:06.755Z,13.20
2022-11-28T10:05:14.659Z,13.00
2022-11-28T10:08:24.713Z,16.10
2022-11-28T10:11:35.606Z,15.90
2022-11-28T10:14:49.640Z,15.20
2022-11-28T10:17:48.636Z,14.50
2022-11-28T10:20:56.619Z,14.70
2022-11-28T10:23:50.603Z,12.40
2022-11-28T10:26:40.761Z,12.20
2022-11-28T10:29:34.614Z,12.20
2022-11-28T10:32:40.626Z,10.90
2022-11-28T10:35:47.611Z,10.80
2022-11-28T10:38:34.265Z,10.60
2022-11-28T10:41:27.611Z,10.50
2022-11-28T10:44:33.760Z,14.80
2022-11-28T10:47:35.723Z,12.30
2022-11-28T10:50:32.011Z,11.30
2022-11-28T10:53:29.584Z,11.30
2022-11-28T10:56:36.703Z,11.20
2022-11-28T10:59:32.834Z,9.10
2022-11-28T11:02:34.614Z,11.00
2022-11-28T11:05:21.621Z,8.30
2022-11-28T11:08:30.740Z,14.10
2022-11-28T11:11:28.153Z,12.20
2022-11-28T11:14:23.587Z,13.10
2022-11-28T11:16:59.670Z,11.60
2022-11-28T11:19:53.604Z,9.00
2022-11-28T11:22:32.103Z,11.80
2022-11-28T11:25:30.557Z,8.50
2022-11-28T11:28:51.657Z,10.30
2022-11-28T11:31:27.981Z,9.60
2022-11-28T11:34:26.592Z,9.60
2022-11-28T11:37:47.607Z,8.40
2022-11-28T11:40:43.596Z,7.60
2022-11-28T11:43:36.584Z,7.70
2022-11-28T11:46:20.791Z,7.10
2022-11-28T11:49:01.581Z,6.20
2022-11-28T11:51:49.745Z,7.00
2022-11-28T11:54:24.041Z,8.50
2022-11-28T11:57:35.310Z,5.90
2022-11-28T12:00:23.750Z,6.80
2022-11-28T12:03:06.917Z,6.20
2022-11-28T12:06:14.145Z,5.90
2022-11-28T12:09:11.483Z,6.60
2022-11-28T12:11:58.794Z,7.20
2022-11-28T12:14:43.133Z,7.80
2022-11-28T12:20:52.787Z,9.80
2022-11-28T12:23:46.588Z,6.00
2022-11-28T12:26:41.914Z,6.20
2022-11-28T12:29:57.794Z,9.20
2022-11-28T12:33:03.864Z,7.60
2022-11-28T12:36:03.558Z,9.00
2022-11-28T12:39:22.738Z,6.40
2022-11-28T12:42:17.580Z,8.40
2022-11-28T12:45:32.714Z,7.80
2022-11-28T12:48:14.599Z,7.20
2022-11-28T12:51:11.584Z,7.70
2022-11-28T12:54:06.576Z,8.90
2022-11-28T12:57:13.742Z,7.60
2022-11-28T13:00:13.718Z,5.60
2022-11-28T13:03:05.149Z,6.00
2022-11-28T13:06:12.776Z,3.60
2022-11-28T13:09:26.724Z,6.40
2022-11-28T13:12:08.310Z,6.60
2022-11-28T13:15:01.780Z,8.10
2022-11-28T13:17:45.917Z,8.20
2022-11-28T13:20:49.569Z,6.20
2022-11-28T13:23:39.717Z,5.60
2022-11-28T13:26:39.568Z,6.50
2022-11-28T13:29:32.724Z,6.70
2022-11-28T13:32:29.567Z,5.50
2022-11-28T13:35:11.682Z,10.20
2022-11-28T13:42:01.150Z,5.80
2022-11-28T13:44:22.573Z,8.20
2022-11-28T13:47:03.761Z,6.50
2022-11-28T13:49:44.587Z,9.10
2022-11-28T13:52:25.719Z,6.80
2022-11-28T13:55:53.567Z,6.60
2022-11-28T13:58:57.071Z,8.20
2022-11-28T14:02:02.683Z,8.80
2022-11-28T14:04:38.949Z,7.80
2022-11-28T14:07:44.621Z,5.50
2022-11-28T14:10:24.769Z,6.10
2022-11-28T14:13:40.762Z,7.30
2022-11-28T14:16:27.968Z,7.50
2022-11-28T14:19:56.569Z,8.40
2022-11-28T14:23:24.578Z,8.10
2022-11-28T14:26:43.579Z,9.70
2022-11-28T14:29:30.708Z,24.30
2022-11-28T14:32:39.553Z,12.20
2022-11-28T14:35:23.717Z,15.30
2022-11-28T14:38:37.557Z,14.30
2022-11-28T14:41:19.740Z,12.20
2022-11-28T14:44:00.554Z,12.30
2022-11-28T14:46:41.778Z,10.40
2022-11-28T14:49:24.562Z,9.90
2022-11-28T14:52:39.035Z,12.10
2022-11-28T14:55:28.567Z,10.80
2022-11-28T14:58:10.684Z,12.20
2022-11-28T15:00:59.519Z,11.20
2022-11-28T15:04:07.556Z,12.40
2022-11-28T15:06:48.582Z,12.90
2022-11-28T15:09:44.760Z,12.20
2022-11-28T15:12:45.576Z,8.00
2022-11-28T15:15:33.566Z,9.50
2022-11-28T15:18:24.768Z,10.40
2022-11-28T15:21:18.680Z,11.90
2022-11-28T15:23:54.851Z,17.10
2022-11-28T15:26:42.588Z,8.20
2022-11-28T15:29:25.901Z,29.60
2022-11-28T15:32:13.573Z,14.30
2022-11-28T15:34:48.686Z,14.00
2022-11-28T15:37:39.066Z,11.10
2022-11-28T15:40:35.702Z,10.50
2022-11-28T15:43:13.914Z,11.50
2022-11-28T15:46:05.573Z,11.90
2022-11-28T15:48:49.554Z,15.70
2022-11-28T15:51:44.572Z,12.40
2022-11-28T15:54:32.879Z,14.10
2022-11-28T15:57:32.747Z,15.50
2022-11-28T16:00:33.615Z,9.70
2022-11-28T16:03:29.546Z,9.50
2022-11-28T16:06:12.565Z,9.40
2022-11-28T16:12:07.578Z,15.80
2022-11-28T16:14:58.745Z,13.20
2022-11-28T16:17:36.704Z,17.10
2022-11-28T16:20:29.553Z,16.50
2022-11-28T16:23:05.679Z,8.20
2022-11-28T16:26:09.553Z,13.30
2022-11-28T16:28:53.531Z,15.80
2022-11-28T16:31:48.779Z,14.00
2022-11-28T16:34:54.555Z,35.00
2022-11-28T16:40:36.540Z,13.40
2022-11-28T16:43:42.555Z,20.10
2022-11-28T16:46:35.590Z,16.10
2022-11-28T16:49:51.550Z,31.70
2022-11-28T16:52:39.539Z,21.50
2022-11-28T16:55:40.559Z,16.70
2022-11-28T16:58:36.549Z,16.50
2022-11-28T17:01:24.587Z,16.10
2022-11-28T17:03:59.693Z,13.90
2022-11-28T17:06:47.550Z,18.20
2022-11-28T17:09:22.688Z,15.80
2022-11-28T17:12:13.740Z,9.40
2022-11-28T17:14:55.534Z,19.40
2022-11-28T17:17:36.993Z,16.30
2022-11-28T17:20:29.933Z,11.30
2022-11-28T17:23:07.121Z,12.10
2022-11-28T17:25:54.534Z,13.40
2022-11-28T17:28:54.504Z,14.00
2022-11-28T17:31:49.613Z,14.70
2022-11-28T17:34:39.525Z,12.30
2022-11-28T17:37:27.628Z,20.20
2022-11-28T17:40:20.304Z,17.60
2022-11-28T17:43:08.555Z,43.00
2022-11-28T17:45:43.186Z,20.40
2022-11-28T17:48:32.494Z,13.60
2022-11-28T17:51:07.080Z,78.20
2022-11-28T17:53:54.897Z,40.10
2022-11-28T17:56:32.719Z,32.20
2022-11-28T17:59:20.731Z,21.90
2022-11-28T18:01:56.084Z,17.00
2022-11-28T18:04:44.542Z,16.50
2022-11-28T18:07:19.127Z,16.90
2022-11-28T18:10:07.542Z,14.10
2022-11-28T18:12:42.365Z,17.00
2022-11-28T18:15:34.742Z,17.30
2022-11-28T18:18:17.972Z,25.40
2022-11-28T18:21:22.563Z,19.10
2022-11-28T18:26:47.663Z,15.20
2022-11-28T18:29:37.528Z,15.80
2022-11-28T18:32:12.855Z,18.60
2022-11-28T18:35:08.081Z,18.20
2022-11-28T18:37:47.781Z,17.90
2022-11-28T18:43:38.434Z,14.20
2022-11-28T18:46:26.514Z,23.80
2022-11-28T18:49:02.266Z,26.00
2022-11-28T18:51:53.602Z,22.40
2022-11-28T18:54:31.383Z,21.20
2022-11-28T18:57:22.961Z,17.30
2022-11-28T19:00:01.876Z,17.50
2022-11-28T19:03:15.440Z,13.40
2022-11-28T19:06:07.605Z,13.90
2022-11-28T19:08:45.347Z,15.30
2022-11-28T19:11:34.508Z,18.90
2022-11-28T19:14:11.735Z,19.00
2022-11-28T19:17:00.478Z,22.30
2022-11-28T19:19:50.716Z,21.90
2022-11-28T19:22:38.526Z,24.00
2022-11-28T19:25:15.694Z,18.40
2022-11-28T19:28:04.728Z,17.50
2022-11-28T19:30:40.864Z,21.40
2022-11-28T19:33:29.517Z,23.40
2022-11-28T19:36:08.646Z,19.00
2022-11-28T19:38:56.492Z,17.20
2022-11-28T19:41:31.295Z,15.60
2022-11-28T19:44:20.496Z,17.60
2022-11-28T19:46:57.062Z,19.00
2022-11-28T19:49:45.977Z,17.00
2022-11-28T19:52:21.651Z,24.50
2022-11-28T19:55:09.496Z,24.20
2022-11-28T19:57:52.504Z,17.60
2022-11-28T20:00:33.939Z,18.40
2022-11-28T20:03:21.500Z,17.50
2022-11-28T20:05:56.075Z,15.60
2022-11-28T20:08:44.451Z,15.70
2022-11-28T20:11:18.888Z,14.50
2022-11-28T20:14:27.495Z,16.20
2022-11-28T20:17:02.180Z,22.00
2022-11-28T20:19:52.514Z,25.90
2022-11-28T20:22:26.965Z,27.50
2022-11-28T20:28:02.693Z,32.50
2022-11-28T20:30:52.499Z,29.50
2022-11-28T20:33:36.123Z,23.00
2022-11-28T20:36:21.614Z,21.90
2022-11-28T20:39:03.500Z,28.30
2022-11-28T20:41:51.541Z,29.10
2022-11-28T20:47:29.464Z,24.10
2022-11-28T20:50:05.012Z,23.20
2022-11-28T20:52:53.502Z,27.10
2022-11-28T20:55:41.483Z,38.80
2022-11-28T20:58:17.658Z,31.40
2022-11-28T21:01:05.571Z,58.10
2022-11-28T21:03:47.516Z,41.60
2022-11-28T21:06:43.479Z,25.50
2022-11-28T21:09:31.612Z,33.50
2022-11-28T21:12:06.627Z,32.40
2022-11-28T21:14:54.436Z,132.50
2022-11-28T21:17:35.626Z,42.00
2022-11-28T21:22:58.812Z,37.80
2022-11-28T21:25:43.506Z,30.40
2022-11-28T21:28:24.634Z,47.80
2022-11-28T21:31:05.465Z,46.60
2022-11-28T21:33:47.527Z,44.30
2022-11-28T21:36:32.782Z,34.50
2022-11-28T21:39:13.993Z,43.80
2022-11-28T21:41:57.714Z,65.90
2022-11-28T21:44:38.822Z,69.40
2022-11-28T21:47:20.494Z,46.40
2022-11-28T21:50:09.487Z,29.40
2022-11-28T21:52:43.852Z,31.60
2022-11-28T21:55:31.468Z,38.50
2022-11-28T21:58:06.994Z,36.80
2022-11-28T22:00:54.533Z,36.80
2022-11-28T22:03:31.274Z,77.80
2022-11-28T22:06:34.813Z,72.80
2022-11-28T22:09:11.274Z,61.80
2022-11-28T22:11:59.475Z,42.20
2022-11-28T22:14:42.455Z,39.00
2022-11-28T22:17:30.620Z,33.50
2022-11-28T22:20:08.147Z,31.30
2022-11-28T22:22:56.464Z,24.50
2022-11-28T22:25:37.462Z,27.00
2022-11-28T22:28:18.575Z,27.80
2022-11-28T22:31:02.471Z,23.20
2022-11-28T22:33:52.003Z,14.20
2022-11-28T22:36:26.982Z,44.00
2022-11-28T22:39:19.922Z,33.70
2022-11-28T22:42:03.433Z,32.30
2022-11-28T22:44:44.837Z,27.20
2022-11-28T22:47:28.417Z,30.70
2022-11-28T22:50:13.641Z,30.60
2022-11-28T22:52:54.615Z,30.90
2022-11-28T22:55:44.493Z,27.20
2022-11-28T22:58:18.940Z,29.60
2022-11-28T23:01:06.458Z,25.40
2022-11-28T23:03:41.095Z,32.70
2022-11-28T23:06:33.491Z,49.10
2022-11-28T23:09:08.809Z,36.60
2022-11-28T23:11:56.449Z,39.50
2022-11-28T23:14:37.458Z,29.20
2022-11-28T23:17:18.652Z,29.70
2022-11-28T23:22:41.594Z,41.00
2022-11-28T23:28:03.598Z,32.80
2022-11-28T23:33:25.528Z,27.30
2022-11-28T23:36:06.405Z,26.60
2022-11-28T23:38:55.435Z,48.20
2022-11-28T23:41:31.155Z,39.50
2022-11-28T23:44:19.440Z,35.30
2022-11-28T23:47:14.413Z,31.80
2022-11-28T23:50:02.439Z,27.90
2022-11-28T23:52:44.444Z,31.20
2022-11-28T23:55:39.413Z,28.20
2022-11-28T23:58:27.634Z,26.70
